Flight Track Log - Related Links

Times and Time Zones

All times are in EDT time to prevent confusion due to time zone crossing. See the SKW6492 flight status page for this flight to view local times or setup timezone preferences in your user account.

Time Position Orientation Groundspeed Altitude Reporting Facility
EDT Latitude Longitude Course Direction KTS MPH feet Rate Location/Type
Mon 10:09:40 PM 39.8500 -104.7500 346° North 177 204 6,700  Level Denver TRACON
Mon 10:10:40 PM 39.8667 -104.8000 293° West 205 236 8,900 1,952 Climbing Denver TRACON
Mon 10:11:46 PM 39.9167 -104.9000 303° West 277 319 10,800 2,000 Climbing Denver TRACON
Mon 10:12:00 PM 40.1943 -104.9588 346° North  Level Estimated
Mon 10:12:52 PM 40.0000 -104.9167 351° North 305 351 13,300  Level Denver TRACON
Mon 10:13:00 PM 40.2773 -105.0307 348° North  Level Estimated
Mon 10:13:46 PM 40.0667 -104.9167 360° North 303 349 15,700  Level Denver TRACON
Mon 10:14:00 PM 40.3603 -105.1027 346° North  Level Estimated
Mon 10:14:40 PM 40.1500 -104.9167 360° North 315 362 17,500  Level Denver TRACON
Mon 10:15:14 PM 40.1942 -104.9094 North 313 360 18,500 1,768 Climbing Denver Center
Mon 10:16:15 PM 40.2797 -104.9022 North 311 358 20,300 1,463 Climbing Denver Center
Mon 10:17:17 PM 40.3742 -104.8917 North 316 364 21,500 1,258 Climbing Denver Center
Mon 10:18:19 PM 40.4628 -104.8842 North 323 372 22,900 1,210 Climbing Denver Center
Mon 10:19:21 PM 40.5550 -104.8753 North 330 380 24,000 1,024 Climbing Denver Center
Mon 10:20:22 PM 40.6400 -104.8653 North 328 377 25,000 1,073 Climbing Denver Center
Mon 10:21:24 PM 40.7528 -104.8514 North 337 388 26,200 968 Climbing Denver Center
Mon 10:22:26 PM 40.8447 -104.8789 347° North 344 396 27,000 829 Climbing Denver Center
Mon 10:23:27 PM 40.9353 -104.9211 341° North 346 398 27,900 829 Climbing Denver Center
Mon 10:24:29 PM 41.0350 -104.9725 339° North 354 407 28,700 919 Climbing Denver Center
Mon 10:25:31 PM 41.1236 -105.0169 339° North 354 407 29,800 919 Climbing Denver Center
Mon 10:26:33 PM 41.2111 -105.0592 340° North 350 403 30,600 878 Climbing Denver Center
Mon 10:27:34 PM 41.3133 -105.1072 341° North 348 400 31,600 683 Climbing Denver Center
Mon 10:28:36 PM 41.4003 -105.1519 339° North 350 403 32,000 194 Climbing Denver Center
Mon 10:29:38 PM 41.5069 -105.2053 339° North 363 418 32,000  Level Denver Center
Mon 10:30:39 PM 41.5950 -105.2714 331° Northwest 389 448 32,000  Level Denver Center
Mon 10:31:41 PM 41.6850 -105.3667 322° Northwest 377 434 32,000  Level Denver Center
Mon 10:32:42 PM 41.7617 -105.4500 321° Northwest 372 428 32,000  Level Denver Center
Mon 10:33:44 PM 41.8386 -105.5331 321° Northwest 370 426 32,000  Level Denver Center
Mon 10:34:46 PM 41.9292 -105.6328 321° Northwest 375 432 32,000  Level Denver Center
Mon 10:35:47 PM 42.0083 -105.7192 321° Northwest 378 435 32,000  Level Denver Center
Mon 10:36:49 PM 42.1011 -105.8222 321° Northwest 384 442 32,000  Level Denver Center
Mon 10:37:50 PM 42.1814 -105.9100 321° Northwest 386 444 32,000  Level Denver Center
Mon 10:38:52 PM 42.2622 -105.9983 321° Northwest 388 447 32,000  Level Denver Center
Mon 10:39:53 PM 42.3558 -106.1019 321° Northwest 389 448 32,000  Level Denver Center
Mon 10:40:55 PM 42.4350 -106.1908 320° Northwest 388 447 32,000  Level Denver Center
Mon 10:41:57 PM 42.5275 -106.2931 321° Northwest 384 442 32,000  Level Denver Center
Mon 10:42:58 PM 42.6050 -106.3811 320° Northwest 381 438 32,000  Level Denver Center
Mon 10:44:00 PM 42.6839 -106.4694 321° Northwest 383 441 32,000  Level Denver Center
Mon 10:45:01 PM 42.7742 -106.5728 320° Northwest 382 440 32,000  Level Denver Center
Mon 10:46:03 PM 42.8514 -106.6592 321° Northwest 377 434 32,000  Level Denver Center
Mon 10:47:04 PM 42.9417 -106.7628 320° Northwest 378 435 32,000  Level Denver Center
Mon 10:48:05 PM 43.0192 -106.8508 320° Northwest 380 437 32,000  Level Denver Center
Mon 10:48:51 PM 43.0842 -106.9253 320° Northwest 380 437 32,000  Level Salt Lake Center
Mon 10:49:52 PM 43.1531 -107.0081 319° Northwest 379 436 32,000  Level Salt Lake Center
Mon 10:50:54 PM 43.2508 -107.1186 321° Northwest 382 440 32,000  Level Salt Lake Center
Mon 10:51:55 PM 43.3314 -107.2128 320° Northwest 381 438 32,000  Level Salt Lake Center
Mon 10:52:56 PM 43.4131 -107.3069 320° Northwest 382 440 32,000  Level Salt Lake Center
Mon 10:53:58 PM 43.4961 -107.4042 320° Northwest 390 449 32,000  Level Salt Lake Center
Mon 10:54:59 PM 43.5789 -107.5022 319° Northwest 392 451 32,000  Level Salt Lake Center
Mon 10:56:00 PM 43.6569 -107.6097 315° West 397 457 32,000  Level Salt Lake Center
Mon 10:57:02 PM 43.7261 -107.7319 308° West 402 463 32,000  Level Salt Lake Center
Mon 10:58:03 PM 43.7947 -107.8528 308° West 401 461 32,000  Level Salt Lake Center
Mon 10:59:04 PM 43.8639 -107.9736 308° West 400 460 32,000 -1,220 Level Salt Lake Center
Mon 11:00:06 PM 43.9331 -108.0961 308° West 403 464 29,500 -2,976 Descending Salt Lake Center
Mon 11:01:07 PM 44.0169 -108.2467 308° West 409 471 25,900 -3,246 Descending Salt Lake Center
Mon 11:02:08 PM 44.0861 -108.3692 308° West 404 465 22,900 -2,951 Descending Salt Lake Center
Mon 11:03:09 PM 44.1533 -108.4908 308° West 399 459 19,900 -2,732 Descending Salt Lake Center
Mon 11:04:11 PM 44.2178 -108.6061 308° West 385 443 17,300 -2,732 Descending Salt Lake Center
Mon 11:05:12 PM 44.2814 -108.7211 308° West 379 436 14,300 -2,902 Descending Salt Lake Center
Mon 11:06:13 PM 44.3564 -108.8064 321° Northwest 375 432 11,400 -1,869 Descending Salt Lake Center
Mon 11:07:14 PM 44.4392 -108.7472 27° Northeast 354 407 10,500 -885 Descending Salt Lake Center
Mon 11:08:15 PM 44.5100 -108.6961 27° Northeast 316 364 9,600 -689 Descending Salt Lake Center
Mon 11:09:16 PM 44.5847 -108.6808 North 302 348 9,100 -683 Descending Salt Lake Center
Mon 11:10:18 PM 44.6400 -108.7400 323° Northwest 268 308 8,200 -634 Descending Salt Lake Center
Mon 11:11:19 PM 44.6364 -108.8142 266° West 227 261 7,800 -344 Descending Salt Lake Center
Mon 11:12:20 PM 44.6019 -108.8817 234° Southwest 192 221 7,500 -492 Descending Salt Lake Center
Mon 11:13:21 PM 44.5739 -108.9319 232° Southwest 178 205 6,800 -787 Descending Salt Lake Center
Mon 11:14:22 PM 44.5522 -108.9700 231° Southwest 168 193 5,900 -885 Descending Salt Lake Center

Login

Don't have an account? Register now (free) for customized features, flight alerts, and more!